Time;durP1;ratioP1;P1;durP2;ratioP2;P2;SDS_P1;SDS_P2;PMS_P1;PMS_P2;Temp;Humidity;BMP_temperature;BMP_pressure;BME280_temperature;BME280_humidity;BME280_pressure;Samples;Min_cycle;Max_cycle;Signal;HPM_P1;HPM_P2
2022/03/06 00:01:26;;;;;;;10.73;6.72;;;;;;;3.80;39.58;101092.84;4171349;28;20076;-60
2022/03/06 00:03:30;;;;;;;11.90;7.00;;;;;;;3.68;40.55;101090.53;4180218;28;20032;-60
2022/03/06 00:05:33;;;;;;;12.65;6.90;;;;;;;3.80;39.67;101088.59;4179116;28;20344;-61
2022/03/06 00:07:36;;;;;;;10.48;5.95;;;;;;;3.87;39.76;101086.31;4180978;28;20079;-61
2022/03/06 00:09:38;;;;;;;11.82;6.30;;;;;;;3.80;39.67;101083.44;4175232;28;20048;-60
2022/03/06 00:11:41;;;;;;;9.95;6.68;;;;;;;3.69;40.37;101094.84;4173791;28;20118;-61
2022/03/06 00:13:44;;;;;;;10.32;6.20;;;;;;;3.70;39.94;101094.06;4179831;28;20449;-61
2022/03/06 00:15:48;;;;;;;9.93;6.82;;;;;;;3.77;39.89;101085.88;4180179;28;20056;-60
2022/03/06 00:17:50;;;;;;;10.97;6.90;;;;;;;3.86;39.10;101087.16;4178519;28;20106;-60
2022/03/06 00:19:53;;;;;;;10.43;7.05;;;;;;;3.80;39.18;101078.31;4178988;28;20047;-60
2022/03/06 00:21:56;;;;;;;11.57;5.78;;;;;;;3.83;39.12;101082.72;4174513;28;20041;-61
2022/03/06 00:23:59;;;;;;;10.63;6.55;;;;;;;3.80;39.49;101082.56;4176899;28;20075;-60
2022/03/06 00:26:01;;;;;;;11.98;6.50;;;;;;;3.90;39.26;101083.91;4180004;28;20049;-60
2022/03/06 00:28:05;;;;;;;10.95;6.78;;;;;;;3.83;39.17;101080.16;4180645;28;20522;-60
2022/03/06 00:30:09;;;;;;;10.13;6.28;;;;;;;3.71;40.00;101085.56;4178418;28;20037;-60
2022/03/06 00:32:13;;;;;;;10.45;6.50;;;;;;;3.74;39.45;101085.69;4179742;28;20086;-60
2022/03/06 00:34:15;;;;;;;9.40;5.90;;;;;;;3.61;39.58;101084.19;4179854;28;20091;-60
2022/03/06 00:36:19;;;;;;;10.23;6.07;;;;;;;3.77;39.29;101080.72;4180583;28;21042;-60
2022/03/06 00:38:21;;;;;;;10.75;6.25;;;;;;;3.83;39.00;101085.28;4179386;28;20049;-60
2022/03/06 00:40:24;;;;;;;11.05;6.63;;;;;;;3.71;39.59;101087.22;4170090;28;20047;-60
2022/03/06 00:42:27;;;;;;;10.35;5.85;;;;;;;3.67;39.35;101086.19;4178277;28;20041;-60
2022/03/06 00:44:30;;;;;;;10.93;6.50;;;;;;;3.70;39.36;101088.91;4171783;28;20069;-60
2022/03/06 00:46:33;;;;;;;10.85;6.40;;;;;;;3.60;39.52;101091.81;4180499;28;20041;-60
2022/03/06 00:48:37;;;;;;;10.27;5.60;;;;;;;3.73;38.87;101096.78;4193861;28;20052;-60
2022/03/06 00:50:40;;;;;;;11.97;6.60;;;;;;;3.66;39.20;101090.47;4172271;28;20099;-60
2022/03/06 00:52:43;;;;;;;9.05;5.32;;;;;;;3.62;39.47;101101.38;4178303;28;20079;-60
2022/03/06 00:54:46;;;;;;;10.65;6.20;;;;;;;3.54;39.60;101099.22;4179825;28;20418;-60
2022/03/06 00:56:49;;;;;;;10.45;7.03;;;;;;;3.51;40.23;101097.34;4178282;28;20053;-60
2022/03/06 00:58:52;;;;;;;11.00;6.10;;;;;;;3.52;39.54;101099.13;4178438;28;20485;-60
2022/03/06 01:00:54;;;;;;;10.15;5.72;;;;;;;3.54;40.03;101097.50;4164014;28;20049;-60
2022/03/06 01:02:57;;;;;;;8.55;6.13;;;;;;;3.58;39.61;101098.56;4163049;28;20049;-60
2022/03/06 01:05:02;;;;;;;9.07;5.70;;;;;;;3.54;40.18;101092.38;4164104;28;20037;-60
2022/03/06 01:07:05;;;;;;;8.60;6.00;;;;;;;3.54;39.98;101097.50;4163990;28;20462;-60
2022/03/06 01:09:08;;;;;;;9.55;5.60;;;;;;;3.64;39.57;101093.75;4171831;28;20045;-60
2022/03/06 01:11:11;;;;;;;9.93;6.20;;;;;;;3.68;39.74;101093.09;4177718;28;20041;-60
2022/03/06 01:13:15;;;;;;;10.18;7.05;;;;;;;3.54;39.87;101099.22;4178630;28;20398;-61
2022/03/06 01:15:18;;;;;;;9.63;6.13;;;;;;;3.51;40.18;101093.91;4180303;28;20477;-59
2022/03/06 01:17:20;;;;;;;10.60;6.63;;;;;;;3.56;39.86;101095.00;4179707;28;20449;-61
2022/03/06 01:19:23;;;;;;;10.35;6.95;;;;;;;3.64;39.34;101094.63;4178101;28;20514;-61
2022/03/06 01:21:27;;;;;;;9.77;6.65;;;;;;;3.47;39.86;101095.41;4180108;28;20060;-60
2022/03/06 01:23:31;;;;;;;9.48;5.88;;;;;;;3.47;39.43;101095.41;4178740;28;20099;-60
2022/03/06 01:25:34;;;;;;;11.50;6.18;;;;;;;3.39;40.01;101100.16;4179011;28;20091;-60
2022/03/06 01:27:36;;;;;;;10.57;6.82;;;;;;;3.42;40.38;101107.16;4181836;28;20044;-60
2022/03/06 01:29:39;;;;;;;12.00;6.72;;;;;;;3.40;40.71;101094.22;4183421;28;20072;-60
2022/03/06 01:31:42;;;;;;;10.52;6.70;;;;;;;3.40;40.56;101098.47;4183298;28;20099;-60
2022/03/06 01:33:45;;;;;;;13.27;6.32;;;;;;;3.36;40.54;101092.28;4168780;28;20099;-60
2022/03/06 01:35:48;;;;;;;11.13;6.28;;;;;;;3.44;40.48;101090.97;4166851;28;20049;-60
2022/03/06 01:37:52;;;;;;;11.07;6.47;;;;;;;3.39;40.25;101089.88;4170798;28;20053;-60
2022/03/06 01:39:55;;;;;;;12.03;7.50;;;;;;;3.46;40.60;101089.41;4176673;28;20527;-60
2022/03/06 01:41:57;;;;;;;11.57;6.45;;;;;;;3.39;40.70;101081.25;4175826;28;20744;-61
2022/03/06 01:44:00;;;;;;;11.50;6.78;;;;;;;3.37;40.67;101093.16;4180328;28;20099;-60
2022/03/06 01:46:03;;;;;;;12.48;7.55;;;;;;;3.25;41.50;101090.81;4183190;28;20671;-60
2022/03/06 01:48:08;;;;;;;11.45;7.30;;;;;;;3.25;41.02;101093.38;4182446;28;20380;-60
2022/03/06 01:50:15;;;;;;;13.60;8.18;;;;;;;3.30;40.81;101081.66;4183211;28;20111;-60
2022/03/06 01:52:18;;;;;;;11.98;7.05;;;;;;;3.30;41.02;101084.22;4182326;28;20055;-60
2022/03/06 01:54:22;;;;;;;11.55;6.72;;;;;;;3.37;41.28;101086.31;4180537;28;20041;-60
2022/03/06 01:56:25;;;;;;;12.13;7.33;;;;;;;3.42;40.59;101079.75;4182878;28;20044;-60
2022/03/06 01:58:27;;;;;;;11.32;6.40;;;;;;;3.42;40.90;101084.91;4181539;28;20307;-60
2022/03/06 02:00:38;;;;;;;14.57;6.88;;;;;;;3.30;40.84;101086.78;4165222;28;20046;-60
2022/03/06 02:02:42;;;;;;;11.85;7.97;;;;;;;3.33;40.88;101084.41;4172773;28;20387;-60
2022/03/06 02:04:45;;;;;;;12.60;7.03;;;;;;;3.21;40.57;101087.19;4182881;28;20072;-60
2022/03/06 02:06:48;;;;;;;12.25;8.18;;;;;;;3.22;41.04;101082.94;4177411;28;20303;-60
2022/03/06 02:08:51;;;;;;;12.82;7.82;;;;;;;3.16;41.62;101080.06;4169980;28;20052;-60
2022/03/06 02:10:55;;;;;;;11.15;7.18;;;;;;;3.26;41.37;101084.88;4182590;28;20041;-60
2022/03/06 02:12:58;;;;;;;12.15;7.45;;;;;;;3.25;40.74;101072.84;4181325;28;20532;-60
2022/03/06 02:15:04;;;;;;;13.48;7.93;;;;;;;3.12;41.23;101078.97;4182802;28;20045;-60
2022/03/06 02:17:07;;;;;;;12.57;7.07;;;;;;;3.13;40.79;101075.63;4181022;28;20049;-60
2022/03/06 02:19:15;;;;;;;13.18;7.57;;;;;;;3.05;41.45;101075.22;4181303;28;20071;-60
2022/03/06 02:21:19;;;;;;;13.30;7.15;;;;;;;2.96;41.87;101075.59;4182185;28;20428;-60
2022/03/06 02:23:21;;;;;;;14.43;8.70;;;;;;;3.08;41.61;101075.38;4175593;28;20037;-60
2022/03/06 02:25:29;;;;;;;13.43;8.35;;;;;;;2.99;41.72;101072.28;4182405;28;20280;-60
2022/03/06 02:27:31;;;;;;;11.75;7.38;;;;;;;3.05;41.81;101072.66;4181902;28;20049;-60
2022/03/06 02:29:34;;;;;;;12.07;7.97;;;;;;;3.12;41.46;101072.16;4182447;28;20076;-60
2022/03/06 02:31:37;;;;;;;12.13;7.72;;;;;;;3.12;41.86;101072.16;4179565;28;20045;-60
2022/03/06 02:33:40;;;;;;;11.02;7.07;;;;;;;3.09;41.70;101077.13;4173419;28;20041;-60
2022/03/06 02:35:43;;;;;;;13.68;8.00;;;;;;;3.07;41.53;101078.75;4182457;28;20056;-60
2022/03/06 02:37:48;;;;;;;14.13;8.05;;;;;;;3.07;41.64;101078.75;4181685;28;20057;-60
2022/03/06 02:39:51;;;;;;;12.18;7.45;;;;;;;3.13;41.33;101078.19;4178435;28;20049;-60
2022/03/06 02:41:53;;;;;;;16.00;8.25;;;;;;;3.23;41.08;101075.31;4180556;28;20111;-61
2022/03/06 02:43:56;;;;;;;12.30;7.55;;;;;;;3.08;41.14;101075.38;4165140;28;20053;-60
2022/03/06 02:45:59;;;;;;;12.90;7.47;;;;;;;2.95;41.63;101073.81;4166281;28;20045;-60
2022/03/06 02:48:02;;;;;;;13.65;7.82;;;;;;;2.99;42.04;101080.00;4182271;28;20123;-60
2022/03/06 02:50:07;;;;;;;13.88;7.78;;;;;;;3.04;41.70;101081.16;4182175;28;20045;-60
2022/03/06 02:52:10;;;;;;;14.50;8.60;;;;;;;3.14;41.23;101078.28;4171384;28;20053;-60
2022/03/06 02:54:17;;;;;;;13.57;7.72;;;;;;;3.06;41.63;101071.81;4173524;28;20033;-60
2022/03/06 02:56:19;;;;;;;11.43;7.80;;;;;;;3.18;41.37;101079.31;4181298;28;20048;-60
2022/03/06 02:58:22;;;;;;;12.93;7.28;;;;;;;3.21;41.84;101076.91;4182055;28;20150;-60
2022/03/06 03:00:26;;;;;;;14.15;8.55;;;;;;;3.29;41.41;101079.91;4182055;28;20053;-60
2022/03/06 03:02:29;;;;;;;12.80;7.32;;;;;;;3.28;41.38;101079.00;4169527;28;20458;-60
2022/03/06 03:04:32;;;;;;;11.57;6.53;;;;;;;3.18;42.05;101073.31;4165512;28;20077;-60
2022/03/06 03:06:35;;;;;;;12.32;7.93;;;;;;;3.27;41.50;101078.91;4168425;28;20103;-60
2022/03/06 03:08:38;;;;;;;12.10;7.75;;;;;;;3.36;41.87;101071.72;4179829;28;20124;-60
2022/03/06 03:10:42;;;;;;;9.15;6.63;;;;;;;3.09;42.46;101076.25;4173188;28;20045;-60
2022/03/06 03:12:45;;;;;;;11.55;7.35;;;;;;;3.00;42.67;101079.22;4181036;28;20036;-60
2022/03/06 03:14:48;;;;;;;11.85;7.45;;;;;;;3.08;42.20;101080.53;4182216;28;20041;-60
2022/03/06 03:16:51;;;;;;;12.27;7.32;;;;;;;3.36;42.16;101081.09;4171239;28;20050;-60
2022/03/06 03:18:54;;;;;;;12.20;7.70;;;;;;;3.32;41.96;101080.06;4165206;28;20041;-60
2022/03/06 03:20:56;;;;;;;13.38;7.10;;;;;;;3.26;41.80;101074.59;4167339;28;20197;-60
2022/03/06 03:22:59;;;;;;;13.18;7.40;;;;;;;3.19;42.30;101072.50;4178574;28;20045;-60
2022/03/06 03:25:02;;;;;;;11.60;7.57;;;;;;;3.26;42.18;101085.75;4181506;28;20037;-60
2022/03/06 03:27:06;;;;;;;12.20;7.65;;;;;;;3.24;42.23;101082.25;4180996;28;20049;-60
2022/03/06 03:29:09;;;;;;;11.85;7.40;;;;;;;3.25;42.45;101083.09;4181646;28;20391;-60
2022/03/06 03:31:12;;;;;;;10.00;6.55;;;;;;;3.34;42.43;101083.59;4177887;28;20087;-60
2022/03/06 03:33:14;;;;;;;12.77;7.55;;;;;;;3.31;42.26;101086.91;4164278;28;20052;-60
2022/03/06 03:35:17;;;;;;;10.05;6.60;;;;;;;3.39;41.80;101079.59;4166190;28;20041;-60
2022/03/06 03:37:20;;;;;;;12.60;7.53;;;;;;;3.36;42.36;101087.16;4177004;28;20071;-60
2022/03/06 03:39:22;;;;;;;13.85;7.03;;;;;;;3.33;42.40;101089.56;4181233;28;20040;-60
2022/03/06 03:41:25;;;;;;;12.50;7.35;;;;;;;3.32;42.20;101092.91;4180494;28;20075;-60
2022/03/06 03:43:29;;;;;;;12.43;6.55;;;;;;;3.42;42.03;101092.59;4180515;28;20388;-60
2022/03/06 03:45:32;;;;;;;12.15;7.40;;;;;;;3.41;42.15;101092.53;4179375;28;20053;-60
2022/03/06 03:47:35;;;;;;;10.10;6.40;;;;;;;3.29;42.24;101096.19;4185123;28;20058;-60
2022/03/06 03:49:38;;;;;;;12.75;7.72;;;;;;;3.17;43.01;101095.56;4180903;28;20040;-59
2022/03/06 03:51:41;;;;;;;12.32;7.50;;;;;;;3.19;42.98;101103.34;4178923;28;20099;-60
2022/03/06 03:53:44;;;;;;;12.68;7.55;;;;;;;3.23;43.05;101102.72;4178911;28;20051;-61
2022/03/06 03:55:47;;;;;;;15.15;7.20;;;;;;;3.26;43.10;101111.44;4180480;28;20037;-60
2022/03/06 03:57:50;;;;;;;11.13;7.55;;;;;;;3.26;43.31;101108.00;4181103;28;20048;-60
2022/03/06 03:59:54;;;;;;;13.02;7.85;;;;;;;3.34;42.59;101114.44;4172601;28;20103;-60
2022/03/06 04:01:56;;;;;;;13.18;6.97;;;;;;;3.34;42.45;101109.28;4164458;28;20049;-60
2022/03/06 04:04:00;;;;;;;11.88;7.25;;;;;;;3.36;42.64;101111.94;4163919;28;20406;-60
2022/03/06 04:06:03;;;;;;;10.98;7.22;;;;;;;3.33;42.14;101110.13;4179025;28;20091;-60
2022/03/06 04:08:05;;;;;;;12.07;7.07;;;;;;;3.22;42.97;101113.78;4180875;28;20040;-60
2022/03/06 04:10:09;;;;;;;13.85;7.90;;;;;;;3.22;42.59;101111.22;4180194;28;20128;-60
2022/03/06 04:12:11;;;;;;;11.90;7.32;;;;;;;3.33;42.75;101117.81;4178893;28;20481;-64
2022/03/06 04:14:14;;;;;;;12.82;7.60;;;;;;;3.19;42.68;101111.91;4179340;28;20033;-60
2022/03/06 04:16:18;;;;;;;11.60;7.22;;;;;;;3.29;42.23;101115.88;4164409;28;20051;-60
2022/03/06 04:18:21;;;;;;;12.18;7.38;;;;;;;3.12;42.81;101123.53;4179658;28;20048;-61
2022/03/06 04:20:24;;;;;;;12.80;7.85;;;;;;;3.20;43.29;101116.25;4170310;28;20094;-60
2022/03/06 04:22:27;;;;;;;13.38;7.82;;;;;;;3.18;43.24;101123.00;4179789;28;20404;-60
2022/03/06 04:24:29;;;;;;;15.60;7.47;;;;;;;3.14;43.02;101124.53;4179956;28;20036;-61
2022/03/06 04:26:33;;;;;;;11.52;7.35;;;;;;;3.21;43.27;101130.84;4180751;28;20064;-60
2022/03/06 04:28:36;;;;;;;13.93;7.85;;;;;;;3.17;43.42;101135.75;4180170;28;20116;-60
2022/03/06 04:30:38;;;;;;;11.40;7.78;;;;;;;3.20;43.46;101143.63;4172918;28;20041;-61
2022/03/06 04:32:42;;;;;;;14.00;7.82;;;;;;;3.21;43.75;101140.25;4195159;28;20052;-61
2022/03/06 04:34:46;;;;;;;12.43;7.53;;;;;;;3.17;43.31;101143.47;4173468;28;20082;-60
2022/03/06 04:36:48;;;;;;;12.25;7.75;;;;;;;3.15;43.30;101145.94;4180501;28;20086;-60
2022/03/06 04:38:51;;;;;;;11.85;6.75;;;;;;;3.07;43.80;101140.38;4179903;28;20045;-60
2022/03/06 04:40:54;;;;;;;13.07;7.18;;;;;;;3.26;43.35;101150.00;4174403;28;20095;-60
2022/03/06 04:42:56;;;;;;;12.10;7.32;;;;;;;3.32;43.32;101152.03;4162566;28;20397;-60
2022/03/06 04:44:59;;;;;;;11.38;7.55;;;;;;;3.27;43.47;101144.06;4175020;28;20048;-60
2022/03/06 04:47:02;;;;;;;11.63;7.95;;;;;;;3.27;43.82;101149.22;4180546;28;20041;-60
2022/03/06 04:49:06;;;;;;;13.27;7.82;;;;;;;3.22;43.69;101152.31;4176716;28;20052;-60
2022/03/06 04:51:09;;;;;;;12.65;7.45;;;;;;;3.12;44.01;101158.63;4165047;28;20487;-60
2022/03/06 04:53:12;;;;;;;10.32;6.40;;;;;;;3.08;43.98;101157.59;4174773;28;20087;-61
2022/03/06 04:55:14;;;;;;;12.75;7.38;;;;;;;3.04;44.42;101163.34;4180540;28;20091;-60
2022/03/06 04:57:17;;;;;;;11.45;7.38;;;;;;;3.16;44.31;101159.69;4180545;28;20506;-61
2022/03/06 04:59:20;;;;;;;13.02;8.05;;;;;;;3.37;44.31;101163.41;4170224;28;20041;-60
2022/03/06 05:01:22;;;;;;;13.38;8.38;;;;;;;3.38;43.97;101161.75;4166109;28;20099;-61
2022/03/06 05:03:26;;;;;;;12.35;7.78;;;;;;;3.42;43.27;101159.44;4168019;28;20047;-61
2022/03/06 05:05:30;;;;;;;10.30;7.78;;;;;;;3.32;43.08;101157.16;4181004;28;20082;-60
2022/03/06 05:07:33;;;;;;;12.73;8.53;;;;;;;3.26;43.64;101167.13;4189928;28;20048;-60
2022/03/06 05:09:35;;;;;;;13.85;9.23;;;;;;;3.26;43.58;101161.97;4182713;28;20287;-61
2022/03/06 05:11:38;;;;;;;13.07;8.57;;;;;;;3.29;43.59;101167.28;4199100;28;20584;-60
2022/03/06 05:13:41;;;;;;;13.18;8.57;;;;;;;3.13;43.64;101157.84;4178562;28;20182;-60
2022/03/06 05:15:43;;;;;;;11.15;7.35;;;;;;;3.27;43.65;101161.16;4167111;28;20068;-60
2022/03/06 05:17:46;;;;;;;13.90;8.18;;;;;;;3.18;43.70;101163.22;4165939;28;20049;-60
2022/03/06 05:19:49;;;;;;;12.65;7.38;;;;;;;3.18;43.91;101158.09;4176326;28;20095;-60
2022/03/06 05:21:53;;;;;;;12.23;7.45;;;;;;;3.16;43.82;101164.84;4183327;28;20049;-60
2022/03/06 05:23:56;;;;;;;10.77;7.13;;;;;;;3.15;44.11;101163.94;4182207;28;20041;-60
2022/03/06 05:25:58;;;;;;;14.13;7.93;;;;;;;3.03;44.48;101164.13;4183459;28;20048;-61
2022/03/06 05:28:01;;;;;;;11.98;7.40;;;;;;;3.03;45.06;101163.25;4183572;28;20075;-60
2022/03/06 05:30:06;;;;;;;12.80;8.05;;;;;;;3.03;44.60;101164.13;4167115;28;20041;-60
2022/03/06 05:32:09;;;;;;;12.93;8.20;;;;;;;3.04;44.76;101171.06;4181346;28;20489;-61
2022/03/06 05:34:12;;;;;;;13.07;7.65;;;;;;;3.16;44.18;101167.41;4172780;28;20094;-60
2022/03/06 05:36:14;;;;;;;12.90;8.15;;;;;;;3.02;44.17;101169.19;4179932;28;20032;-60
2022/03/06 05:38:18;;;;;;;14.05;7.70;;;;;;;2.91;44.78;101178.88;4181365;28;20049;-60
2022/03/06 05:40:21;;;;;;;14.23;7.50;;;;;;;2.92;45.18;101172.91;4182205;28;20068;-60
2022/03/06 05:42:24;;;;;;;11.88;7.20;;;;;;;2.93;45.23;101174.69;4165992;28;20280;-60
2022/03/06 05:44:27;;;;;;;13.73;7.65;;;;;;;3.03;44.57;101179.53;4175539;28;20037;-60
2022/03/06 05:46:30;;;;;;;11.05;7.13;;;;;;;3.06;44.65;101179.72;4183252;28;20041;-60
2022/03/06 05:48:33;;;;;;;15.75;8.85;;;;;;;3.00;45.38;101179.38;4180381;28;20495;-60
2022/03/06 05:50:35;;;;;;;11.57;7.45;;;;;;;2.98;45.27;101186.13;4183033;28;20399;-60
2022/03/06 05:52:39;;;;;;;12.82;7.95;;;;;;;3.01;45.00;101178.59;4182035;28;20501;-60
2022/03/06 05:54:43;;;;;;;12.05;7.05;;;;;;;2.92;45.49;101180.63;4180067;28;20057;-60
2022/03/06 05:56:46;;;;;;;13.85;8.13;;;;;;;2.95;44.63;101189.41;4182094;28;20392;-60
2022/03/06 05:58:49;;;;;;;13.13;8.30;;;;;;;2.86;45.46;101187.97;4181040;28;20063;-60
2022/03/06 06:00:51;;;;;;;11.65;7.53;;;;;;;2.91;45.22;101187.44;4182044;28;20041;-61
2022/03/06 06:02:55;;;;;;;12.73;8.05;;;;;;;2.86;45.79;101198.25;4180532;28;20041;-60
2022/03/06 06:04:58;;;;;;;13.60;7.65;;;;;;;2.88;45.72;101194.09;4164783;28;20458;-60
2022/03/06 06:07:00;;;;;;;11.18;7.35;;;;;;;2.96;45.62;101187.69;4181880;28;20445;-60
2022/03/06 06:09:04;;;;;;;12.20;7.85;;;;;;;3.04;45.12;101191.59;4179781;28;20052;-61
2022/03/06 06:11:08;;;;;;;13.48;8.30;;;;;;;2.90;45.61;101189.94;4180282;28;20049;-60
2022/03/06 06:13:14;;;;;;;13.27;8.50;;;;;;;2.87;46.23;101197.47;4179341;28;20041;-61
2022/03/06 06:15:17;;;;;;;13.30;8.70;;;;;;;2.87;46.01;101195.75;4165420;28;20115;-60
2022/03/06 06:17:20;;;;;;;12.38;7.88;;;;;;;2.86;46.14;101196.59;4165340;28;20495;-60
2022/03/06 06:19:23;;;;;;;11.23;7.50;;;;;;;2.96;45.92;101200.53;4165126;28;20054;-60
2022/03/06 06:21:26;;;;;;;12.32;8.45;;;;;;;3.01;45.80;101200.78;4179041;28;20041;-61
2022/03/06 06:23:28;;;;;;;11.45;7.63;;;;;;;2.88;45.98;101200.13;4180050;28;20045;-60
2022/03/06 06:25:36;;;;;;;13.18;7.90;;;;;;;2.90;46.29;101202.75;4181697;28;20056;-60
2022/03/06 06:27:40;;;;;;;13.05;8.00;;;;;;;3.13;45.71;101206.66;4179891;28;20045;-60
2022/03/06 06:29:43;;;;;;;13.57;8.50;;;;;;;3.00;45.81;101212.75;4165260;28;20054;-60
2022/03/06 06:31:45;;;;;;;12.88;8.30;;;;;;;3.04;46.09;101207.00;4165054;28;20052;-60
2022/03/06 06:33:48;;;;;;;13.98;9.02;;;;;;;3.03;46.09;101210.38;4172593;28;20037;-60
2022/03/06 06:35:51;;;;;;;12.80;7.72;;;;;;;3.06;46.22;101210.53;4170224;28;20040;-60
2022/03/06 06:37:54;;;;;;;12.55;7.82;;;;;;;2.94;46.28;101210.72;4173534;28;20042;-61
2022/03/06 06:39:56;;;;;;;13.93;8.05;;;;;;;3.03;46.35;101215.50;4181417;28;20445;-60
2022/03/06 06:42:01;;;;;;;11.23;7.88;;;;;;;3.06;45.58;101220.81;4181250;28;20041;-61
2022/03/06 06:44:05;;;;;;;16.75;8.90;;;;;;;3.04;45.78;101216.38;4179694;28;20048;-59
2022/03/06 06:46:08;;;;;;;15.45;9.73;;;;;;;2.97;45.99;101220.31;4163683;28;20046;-60
2022/03/06 06:48:11;;;;;;;16.02;9.32;;;;;;;2.89;46.66;101222.44;4166108;28;20435;-60
2022/03/06 06:50:14;;;;;;;12.68;8.18;;;;;;;2.95;46.77;101227.91;4179580;28;20036;-60
2022/03/06 06:52:17;;;;;;;14.10;8.90;;;;;;;3.05;46.33;101233.56;4180391;28;20049;-60
2022/03/06 06:54:20;;;;;;;15.03;9.93;;;;;;;3.05;45.76;101234.47;4128569;28;1194711;-60
2022/03/06 06:56:22;;;;;;;13.07;7.80;;;;;;;3.13;45.78;101234.91;4180774;28;20411;-60
2022/03/06 06:58:25;;;;;;;12.48;8.07;;;;;;;3.07;46.03;101232.88;4179401;28;20045;-59
2022/03/06 07:00:30;;;;;;;11.98;7.90;;;;;;;3.02;46.64;101229.13;4181104;28;20083;-59
2022/03/06 07:02:33;;;;;;;12.90;7.55;;;;;;;3.18;46.44;101219.75;4174727;28;20123;-60
2022/03/06 07:04:38;;;;;;;15.32;8.48;;;;;;;3.25;46.26;101227.00;4169180;28;20507;-59
2022/03/06 07:06:40;;;;;;;14.02;8.52;;;;;;;3.41;45.96;101227.06;4170229;28;20495;-60
2022/03/06 07:08:43;;;;;;;13.32;8.48;;;;;;;3.35;45.47;101228.41;4174612;28;20056;-60
2022/03/06 07:10:46;;;;;;;12.68;7.78;;;;;;;3.28;45.89;101233.19;4169072;28;20037;-59
2022/03/06 07:12:53;;;;;;;13.73;8.55;;;;;;;3.35;46.32;101241.25;4172937;28;20746;-60
2022/03/06 07:14:55;;;;;;;14.80;7.72;;;;;;;3.43;46.40;101246.03;4169037;28;20052;-60
2022/03/06 07:16:59;;;;;;;13.65;8.73;;;;;;;3.46;45.83;101232.44;4176998;28;20502;-60
2022/03/06 07:19:02;;;;;;;11.93;8.23;;;;;;;3.46;45.40;101241.06;4174990;28;20041;-60
2022/03/06 07:21:23;;;;;;;14.90;8.13;;;;;;;3.42;45.85;101245.94;4173576;28;20040;-61
2022/03/06 07:23:32;;;;;;;13.48;8.43;;;;;;;3.46;45.79;101243.63;4172731;28;20099;-60
2022/03/06 07:25:35;;;;;;;15.38;8.05;;;;;;;3.71;45.59;101247.56;4165263;28;20049;-60
2022/03/06 07:27:37;;;;;;;14.10;8.88;;;;;;;3.59;45.25;101244.28;4163841;28;20438;-60
2022/03/06 07:29:40;;;;;;;11.52;8.40;;;;;;;3.61;45.30;101243.59;4165100;28;20038;-60
2022/03/06 07:31:43;;;;;;;18.30;9.07;;;;;;;3.62;45.13;101244.44;4165072;28;20041;-61
2022/03/06 07:33:47;;;;;;;16.13;8.93;;;;;;;3.63;44.84;101247.09;4164042;28;20045;-61
2022/03/06 07:35:50;;;;;;;13.45;8.57;;;;;;;3.61;44.60;101243.59;4168078;28;20545;-61
2022/03/06 07:37:52;;;;;;;16.00;9.23;;;;;;;3.52;45.42;101242.19;4172502;28;20049;-62
2022/03/06 07:39:55;;;;;;;20.73;13.40;;;;;;;3.58;45.60;101250.25;4180011;28;20057;-61
2022/03/06 07:41:58;;;;;;;39.78;23.48;;;;;;;3.65;45.70;101249.75;4164574;28;20053;-61
2022/03/06 07:44:00;;;;;;;132.05;72.25;;;;;;;3.75;45.77;101252.06;4181021;28;20102;-61
2022/03/06 07:46:03;;;;;;;47.90;29.35;;;;;;;3.75;45.61;101244.34;4179971;28;20041;-61
2022/03/06 07:48:06;;;;;;;23.20;15.60;;;;;;;3.70;45.61;101245.78;4171389;28;20445;-61
2022/03/06 07:50:12;;;;;;;41.15;34.30;;;;;;;3.87;44.84;101250.94;4164758;28;20041;-61
2022/03/06 07:52:15;;;;;;;34.83;30.88;;;;;;;3.84;45.18;101252.56;4166191;28;20053;-61
2022/03/06 07:54:18;;;;;;;14.48;10.23;;;;;;;3.89;44.55;101254.50;4178152;28;20412;-61
2022/03/06 07:56:20;;;;;;;15.40;8.73;;;;;;;3.95;44.72;101247.97;4169150;28;20632;-61
2022/03/06 07:58:23;;;;;;;14.95;8.57;;;;;;;4.01;44.41;101250.88;4164740;28;20441;-61
2022/03/06 08:00:26;;;;;;;11.55;7.28;;;;;;;4.15;44.10;101248.19;4174955;28;20465;-61
2022/03/06 08:02:28;;;;;;;12.98;8.27;;;;;;;4.21;43.74;101256.22;4172949;28;20037;-61
2022/03/06 08:04:31;;;;;;;14.25;7.60;;;;;;;4.16;44.33;101249.91;4175579;28;20049;-61
2022/03/06 08:06:35;;;;;;;11.73;8.00;;;;;;;4.25;43.10;101255.56;4174349;28;20045;-61
2022/03/06 08:08:38;;;;;;;12.40;7.83;;;;;;;4.38;43.36;101257.09;4171692;28;20114;-61
2022/03/06 08:10:41;;;;;;;11.80;7.80;;;;;;;4.39;42.63;101258.84;4175202;28;20049;-61
2022/03/06 08:12:44;;;;;;;12.27;7.63;;;;;;;4.30;42.86;101266.09;4179566;28;20099;-61
2022/03/06 08:14:48;;;;;;;13.25;8.02;;;;;;;4.39;42.63;101252.84;4179830;28;20384;-61
2022/03/06 08:16:50;;;;;;;13.00;7.20;;;;;;;4.23;42.70;101253.72;4179235;28;20100;-61
2022/03/06 08:18:53;;;;;;;20.15;9.30;;;;;;;4.16;43.39;101250.81;4177381;28;20098;-61
2022/03/06 08:20:56;;;;;;;13.27;7.90;;;;;;;4.46;43.00;101254.91;4180377;28;20048;-61
2022/03/06 08:23:01;;;;;;;11.02;6.88;;;;;;;4.71;41.51;101242.47;4176694;28;20076;-61
2022/03/06 08:25:05;;;;;;;9.55;6.47;;;;;;;4.51;42.48;101253.44;4179316;28;20052;-61
2022/03/06 08:27:08;;;;;;;11.65;7.60;;;;;;;4.69;42.02;101253.53;4180751;28;20041;-61
2022/03/06 08:29:10;;;;;;;12.20;7.32;;;;;;;4.73;41.92;101250.28;4180510;28;20174;-61
2022/03/06 08:31:13;;;;;;;11.52;7.38;;;;;;;4.77;41.81;101241.91;4180723;28;20103;-61
2022/03/06 08:33:16;;;;;;;10.98;7.10;;;;;;;4.92;40.83;101251.22;4179713;28;20129;-61
2022/03/06 08:35:19;;;;;;;12.07;7.72;;;;;;;4.98;40.54;101251.50;4178272;28;20614;-61
2022/03/06 08:37:21;;;;;;;14.00;7.53;;;;;;;4.81;41.32;101248.97;4167168;28;20061;-61
2022/03/06 08:39:26;;;;;;;12.55;7.53;;;;;;;4.98;40.81;101254.09;4168523;28;20045;-61
2022/03/06 08:41:29;;;;;;;;;;;;;;;4.98;40.68;101256.66;4166617;28;20046;-61
2022/03/06 08:43:32;;;;;;;13.52;7.82;;;;;;;5.02;40.72;101253.44;4167956;28;19921;-61
2022/03/06 08:45:36;;;;;;;12.23;8.05;;;;;;;4.90;41.02;101264.88;4171397;28;20049;-61
2022/03/06 08:47:39;;;;;;;10.95;7.22;;;;;;;5.10;40.42;101262.44;4177714;28;20044;-61
2022/03/06 08:49:42;;;;;;;12.13;8.25;;;;;;;5.24;40.52;101265.69;4174064;28;20044;-61
2022/03/06 08:51:45;;;;;;;12.63;7.85;;;;;;;5.29;39.95;101264.22;4180544;28;20552;-61
2022/03/06 08:53:47;;;;;;;15.13;7.53;;;;;;;5.37;40.03;101260.34;4193875;28;20048;-61
2022/03/06 08:55:52;;;;;;;11.25;7.00;;;;;;;5.46;39.23;101262.47;4175950;28;20047;-61
2022/03/06 08:57:54;;;;;;;13.23;7.50;;;;;;;5.40;39.04;101262.16;4176991;28;20794;-62
2022/03/06 08:59:57;;;;;;;10.15;6.97;;;;;;;5.56;39.01;101262.09;4176558;28;20291;-61
2022/03/06 09:02:00;;;;;;;12.05;7.90;;;;;;;5.67;37.64;101269.47;4180068;28;20079;-62
2022/03/06 09:04:03;;;;;;;10.95;7.30;;;;;;;5.62;37.56;101263.19;4179511;28;20048;-61
2022/03/06 09:06:05;;;;;;;16.30;8.05;;;;;;;5.67;37.60;101265.16;4168958;28;20499;-61
2022/03/06 09:08:09;;;;;;;12.60;7.60;;;;;;;5.77;37.25;101263.91;4169477;28;20037;-61
2022/03/06 09:10:11;;;;;;;10.80;7.20;;;;;;;5.72;36.95;101265.38;4185109;28;20037;-61
2022/03/06 09:12:15;;;;;;;11.98;7.88;;;;;;;5.92;35.94;101261.16;4177603;28;20445;-61
2022/03/06 09:14:18;;;;;;;10.40;7.27;;;;;;;5.93;35.30;101257.78;4170427;28;20172;-61
2022/03/06 09:16:21;;;;;;;12.15;7.10;;;;;;;6.02;34.76;101265.09;4165208;28;20334;-61
2022/03/06 09:18:24;;;;;;;10.40;7.07;;;;;;;5.98;34.40;101261.47;4171301;28;20033;-60
2022/03/06 09:20:28;;;;;;;10.32;7.22;;;;;;;6.04;34.09;101266.03;4163669;28;20049;-61
2022/03/06 09:22:31;;;;;;;11.60;7.15;;;;;;;6.10;34.23;101261.13;4169690;28;20170;-60
2022/03/06 09:24:34;;;;;;;11.07;7.38;;;;;;;6.04;34.37;101264.31;4170056;28;20091;-60
2022/03/06 09:26:36;;;;;;;11.82;7.93;;;;;;;6.11;34.79;101260.31;4179436;28;20048;-60
2022/03/06 09:28:40;;;;;;;35.38;18.15;;;;;;;6.36;33.43;101256.25;4177535;28;20045;-60
2022/03/06 09:30:43;;;;;;;12.63;8.67;;;;;;;6.18;34.58;101266.66;4172887;28;20430;-60
2022/03/06 09:32:46;;;;;;;12.05;8.35;;;;;;;6.21;33.72;101262.50;4173653;28;20056;-60
2022/03/06 09:34:49;;;;;;;12.85;6.72;;;;;;;6.39;32.17;101261.56;4167526;28;20041;-60